Time;durP1;ratioP1;P1;durP2;ratioP2;P2;SDS_P1;SDS_P2;PMS_P1;PMS_P2;Temp;Humidity;BMP_temperature;BMP_pressure;BME280_temperature;BME280_humidity;BME280_pressure;Samples;Min_cycle;Max_cycle;Signal;HPM_P1;HPM_P2
2024/04/22 00:01:50;;;;;;;3.50;1.65;;;2.80;95.50;;;;;;5433497;26;20010;-70
2024/04/22 00:04:16;;;;;;;3.38;1.35;;;2.80;95.50;;;;;;5434844;26;20014;-70
2024/04/22 00:06:45;;;;;;;4.35;1.08;;;2.80;95.50;;;;;;5434281;26;20091;-70
2024/04/22 00:09:14;;;;;;;3.35;1.35;;;2.70;95.50;;;;;;5432343;26;19995;-69
2024/04/22 00:11:40;;;;;;;5.32;1.52;;;2.70;95.50;;;;;;5430884;26;20010;-69
2024/04/22 00:14:08;;;;;;;2.13;1.00;;;2.70;95.50;;;;;;5433282;26;20029;-70
2024/04/22 00:16:34;;;;;;;3.20;1.42;;;2.70;95.40;;;;;;5433938;26;19995;-69
2024/04/22 00:19:01;;;;;;;2.83;1.10;;;2.60;95.40;;;;;;5430678;26;19998;-69
2024/04/22 00:21:27;;;;;;;2.45;1.23;;;2.60;95.30;;;;;;5432644;26;20009;-69
2024/04/22 00:23:52;;;;;;;2.13;0.85;;;2.60;95.40;;;;;;5435432;26;19991;-69
2024/04/22 00:26:18;;;;;;;2.08;1.40;;;2.60;95.40;;;;;;5435883;26;20083;-69
2024/04/22 00:28:44;;;;;;;1.50;1.10;;;2.50;95.40;;;;;;5434741;26;19994;-69
2024/04/22 00:31:09;;;;;;;4.45;1.33;;;2.50;95.50;;;;;;5436677;26;20002;-69
2024/04/22 00:33:35;;;;;;;1.83;1.02;;;2.50;95.40;;;;;;5434423;26;19999;-69
2024/04/22 00:36:01;;;;;;;2.58;0.98;;;2.50;95.50;;;;;;5432618;26;20007;-69
2024/04/22 00:38:28;;;;;;;2.33;1.25;;;2.50;95.50;;;;;;5434806;26;20011;-69
2024/04/22 00:40:55;;;;;;;3.05;1.38;;;2.50;95.60;;;;;;5426196;26;19991;-69
2024/04/22 00:43:21;;;;;;;1.85;1.08;;;2.50;95.50;;;;;;5434374;26;20046;-69
2024/04/22 00:45:46;;;;;;;4.35;1.40;;;2.40;95.60;;;;;;5430337;26;20014;-69
2024/04/22 00:48:15;;;;;;;4.50;1.60;;;2.40;95.70;;;;;;5430044;26;20014;-69
2024/04/22 00:50:42;;;;;;;4.05;1.40;;;2.40;95.60;;;;;;5427698;26;19991;-69
2024/04/22 00:53:11;;;;;;;3.90;1.52;;;2.40;95.70;;;;;;5435540;26;20010;-70
2024/04/22 00:55:39;;;;;;;2.63;1.27;;;2.40;95.70;;;;;;5432903;26;20677;-69
2024/04/22 00:58:06;;;;;;;3.58;1.60;;;2.40;95.80;;;;;;5430597;26;20028;-70
2024/04/22 01:00:34;;;;;;;4.22;1.92;;;2.40;95.80;;;;;;5426361;26;20010;-70
2024/04/22 01:03:02;;;;;;;6.32;1.73;;;2.30;95.80;;;;;;5433214;26;20017;-70
2024/04/22 01:05:28;;;;;;;4.05;1.58;;;2.30;95.80;;;;;;5433642;26;20335;-75
2024/04/22 01:07:57;;;;;;;3.65;1.27;;;2.30;95.70;;;;;;5432655;26;20016;-74
2024/04/22 01:10:23;;;;;;;2.63;1.42;;;2.20;95.80;;;;;;5430837;26;20046;-74
2024/04/22 01:12:49;;;;;;;4.38;1.77;;;2.20;96.00;;;;;;5434911;26;20010;-74
2024/04/22 01:15:15;;;;;;;4.10;1.80;;;2.20;96.00;;;;;;5430616;26;20018;-74
2024/04/22 01:17:44;;;;;;;2.20;1.50;;;2.30;96.10;;;;;;5437004;26;20112;-75
2024/04/22 01:20:11;;;;;;;3.17;1.40;;;2.20;96.10;;;;;;5424708;26;20015;-74
2024/04/22 01:22:37;;;;;;;2.10;1.40;;;2.20;96.10;;;;;;5436164;26;20362;-74
2024/04/22 01:25:03;;;;;;;2.58;1.35;;;2.20;96.30;;;;;;5434501;26;21196;-74
2024/04/22 01:27:31;;;;;;;3.63;1.73;;;2.20;96.40;;;;;;5440659;26;20846;-74
2024/04/22 01:30:01;;;;;;;2.10;1.30;;;2.20;96.30;;;;;;5432935;26;20011;-74
2024/04/22 01:32:27;;;;;;;4.20;1.60;;;2.20;96.30;;;;;;5437125;26;20015;-74
2024/04/22 01:34:58;;;;;;;3.78;1.30;;;2.20;96.20;;;;;;5433853;26;20555;-75
2024/04/22 01:37:25;;;;;;;4.03;1.77;;;2.10;96.40;;;;;;5433009;26;20038;-74
2024/04/22 01:39:50;;;;;;;3.80;1.83;;;2.10;96.50;;;;;;5434837;26;20022;-74
2024/04/22 01:42:16;;;;;;;2.70;1.45;;;2.10;96.60;;;;;;5435210;26;20559;-74
2024/04/22 01:44:42;;;;;;;3.42;1.80;;;2.10;96.60;;;;;;5434402;26;20010;-75
2024/04/22 01:47:08;;;;;;;5.22;1.55;;;2.10;96.50;;;;;;5440354;26;19999;-75
2024/04/22 01:49:34;;;;;;;4.28;1.73;;;2.10;96.50;;;;;;5435619;26;20014;-74
2024/04/22 01:52:00;;;;;;;6.50;2.13;;;2.00;96.60;;;;;;5432862;26;20010;-75
2024/04/22 01:54:26;;;;;;;2.88;1.80;;;2.00;96.60;;;;;;5433949;26;20046;-74
2024/04/22 01:56:55;;;;;;;2.75;1.17;;;2.00;96.70;;;;;;5433583;26;20003;-74
2024/04/22 01:59:22;;;;;;;4.07;1.67;;;2.00;96.80;;;;;;5434634;26;20687;-74
2024/04/22 02:01:48;;;;;;;2.03;1.48;;;2.00;97.20;;;;;;5434528;26;20014;-74
2024/04/22 02:04:14;;;;;;;2.67;1.60;;;1.90;96.80;;;;;;5433552;26;20823;-74
2024/04/22 02:06:40;;;;;;;3.08;1.80;;;1.90;97.00;;;;;;5434901;26;20006;-74
2024/04/22 02:09:05;;;;;;;3.05;1.27;;;2.00;97.00;;;;;;5433577;26;20055;-74
2024/04/22 02:11:31;;;;;;;3.55;1.75;;;1.90;97.10;;;;;;5430793;26;20003;-74
2024/04/22 02:13:57;;;;;;;2.25;1.20;;;1.90;97.00;;;;;;5429471;26;20011;-74
2024/04/22 02:16:23;;;;;;;4.00;1.73;;;1.90;97.10;;;;;;5433999;26;20009;-75
2024/04/22 02:18:55;;;;;;;3.88;1.52;;;1.80;97.20;;;;;;5437443;26;20055;-74
2024/04/22 02:21:22;;;;;;;3.30;1.98;;;1.80;97.20;;;;;;5434053;26;20551;-74
2024/04/22 02:23:48;;;;;;;4.05;1.42;;;1.80;97.30;;;;;;5436476;26;20011;-74
2024/04/22 02:26:14;;;;;;;2.30;1.58;;;1.80;97.20;;;;;;5434153;26;20003;-74
2024/04/22 02:28:39;;;;;;;2.45;1.48;;;1.80;97.20;;;;;;5429837;26;20003;-74
2024/04/22 02:31:05;;;;;;;4.22;1.70;;;1.80;97.40;;;;;;5432908;26;20438;-74
2024/04/22 02:33:31;;;;;;;4.80;1.95;;;1.80;97.50;;;;;;5438842;26;20342;-74
2024/04/22 02:35:57;;;;;;;5.90;1.20;;;1.70;97.40;;;;;;5428938;26;20463;-75
2024/04/22 02:38:23;;;;;;;1.90;1.30;;;1.70;97.40;;;;;;5437983;26;20523;-74
2024/04/22 02:40:49;;;;;;;3.05;1.70;;;1.80;97.40;;;;;;5432764;26;20003;-74
2024/04/22 02:43:15;;;;;;;3.42;1.92;;;1.70;97.40;;;;;;5431458;26;20408;-74
2024/04/22 02:45:40;;;;;;;4.55;1.63;;;1.70;97.40;;;;;;5435025;26;20347;-75
2024/04/22 02:48:06;;;;;;;3.95;1.42;;;1.70;97.50;;;;;;5437331;26;20951;-75
2024/04/22 02:50:33;;;;;;;1.77;1.38;;;1.70;97.60;;;;;;5429755;26;20051;-74
2024/04/22 02:52:59;;;;;;;2.70;1.33;;;1.70;97.60;;;;;;5433432;26;20711;-75
2024/04/22 02:55:28;;;;;;;3.03;1.63;;;1.60;97.50;;;;;;5432349;26;20069;-74
2024/04/22 02:57:58;;;;;;;2.58;1.30;;;1.70;97.50;;;;;;5435517;26;19995;-75
2024/04/22 03:00:24;;;;;;;4.95;1.70;;;1.60;97.50;;;;;;5430646;26;20011;-74
2024/04/22 03:02:50;;;;;;;6.15;1.40;;;1.60;97.70;;;;;;5434803;26;20025;-74
2024/04/22 03:05:16;;;;;;;2.80;1.33;;;1.60;97.70;;;;;;5428915;26;19996;-75
2024/04/22 03:07:42;;;;;;;3.75;1.73;;;1.60;97.80;;;;;;5435132;26;20002;-74
2024/04/22 03:10:09;;;;;;;5.90;1.50;;;1.60;97.90;;;;;;5432120;26;20096;-74
2024/04/22 03:12:35;;;;;;;3.67;1.60;;;1.60;98.00;;;;;;5434219;26;20003;-74
2024/04/22 03:15:01;;;;;;;1.85;1.55;;;1.50;98.00;;;;;;5428445;26;20092;-75
2024/04/22 03:17:26;;;;;;;7.25;2.05;;;1.50;98.10;;;;;;5433317;26;20046;-75
2024/04/22 03:19:52;;;;;;;6.22;2.03;;;1.60;98.00;;;;;;5433677;26;20816;-74
2024/04/22 03:22:18;;;;;;;3.13;1.70;;;1.50;98.10;;;;;;5431062;26;20042;-69
2024/04/22 03:24:45;;;;;;;4.07;1.50;;;1.50;98.20;;;;;;5439109;26;20006;-69
2024/04/22 03:27:11;;;;;;;5.60;1.77;;;1.50;98.30;;;;;;5430823;26;20009;-69
2024/04/22 03:29:36;;;;;;;3.80;1.77;;;1.50;98.30;;;;;;5433123;26;19999;-70
2024/04/22 03:32:02;;;;;;;4.47;1.55;;;1.50;98.30;;;;;;5431707;26;20003;-70
2024/04/22 03:34:28;;;;;;;1.70;1.40;;;1.50;98.30;;;;;;5430650;26;20026;-70
2024/04/22 03:36:54;;;;;;;2.20;1.50;;;1.50;98.20;;;;;;5426745;26;20003;-69
2024/04/22 03:39:19;;;;;;;3.80;1.55;;;1.50;98.40;;;;;;5438688;26;19995;-74
2024/04/22 03:41:45;;;;;;;2.25;1.20;;;1.50;98.80;;;;;;5432000;26;20051;-69
2024/04/22 03:44:11;;;;;;;3.72;1.50;;;1.50;98.20;;;;;;5433432;26;19995;-70
2024/04/22 03:52:06;;;;;;;1.67;1.35;;;1.40;98.10;;;;;;5433475;26;19996;-70
2024/04/22 03:54:32;;;;;;;5.47;1.30;;;1.40;98.30;;;;;;5432990;26;20073;-69
2024/04/22 03:56:57;;;;;;;3.00;1.52;;;1.40;98.50;;;;;;5433441;26;20006;-70
2024/04/22 03:59:23;;;;;;;2.15;1.30;;;1.40;98.60;;;;;;5432556;26;20073;-70
2024/04/22 04:01:49;;;;;;;2.35;1.42;;;1.40;98.70;;;;;;5433419;26;19999;-69
2024/04/22 04:04:14;;;;;;;3.20;1.60;;;1.40;98.80;;;;;;5434907;26;20410;-70
2024/04/22 04:06:40;;;;;;;2.45;1.30;;;1.40;99.20;;;;;;5432097;26;20475;-70
2024/04/22 04:09:06;;;;;;;2.17;1.30;;;1.40;99.10;;;;;;5438025;26;20825;-69
2024/04/22 04:11:37;;;;;;;2.38;1.30;;;1.40;99.10;;;;;;5430617;26;20003;-69
2024/04/22 04:14:11;;;;;;;5.13;1.45;;;1.40;99.10;;;;;;5428732;26;19998;-69
2024/04/22 04:16:37;;;;;;;2.83;1.50;;;1.40;99.10;;;;;;5434790;26;19999;-70
2024/04/22 04:19:03;;;;;;;2.92;1.50;;;1.40;99.20;;;;;;5434282;26;20018;-69
2024/04/22 04:21:29;;;;;;;1.80;1.33;;;1.40;99.20;;;;;;5429680;26;20557;-69
2024/04/22 04:23:55;;;;;;;3.05;1.65;;;1.40;99.40;;;;;;5430326;26;20014;-70
2024/04/22 04:26:21;;;;;;;2.38;1.20;;;1.40;99.20;;;;;;5432228;26;20003;-69
2024/04/22 04:28:48;;;;;;;2.63;1.33;;;1.40;99.20;;;;;;5434862;26;20027;-69
2024/04/22 04:31:13;;;;;;;3.70;1.38;;;1.40;99.30;;;;;;5429179;26;20014;-69
2024/04/22 04:33:39;;;;;;;3.35;1.23;;;1.50;99.20;;;;;;5435285;26;20315;-70
2024/04/22 04:36:07;;;;;;;2.70;1.23;;;1.40;99.00;;;;;;5428482;26;20004;-69
2024/04/22 04:38:33;;;;;;;1.58;1.20;;;1.40;99.30;;;;;;5435299;26;20026;-69
2024/04/22 04:41:00;;;;;;;2.75;1.25;;;1.40;99.40;;;;;;5437607;26;20010;-69
2024/04/22 04:43:26;;;;;;;3.60;1.45;;;1.50;99.60;;;;;;5428890;26;20010;-69
2024/04/22 04:45:52;;;;;;;2.90;1.40;;;1.50;99.60;;;;;;5435929;26;20453;-70
2024/04/22 04:48:19;;;;;;;1.85;1.27;;;1.60;99.80;;;;;;5434036;26;20724;-69
2024/04/22 04:50:45;;;;;;;2.47;1.83;;;1.70;99.70;;;;;;5433214;26;20254;-69
2024/04/22 04:53:11;;;;;;;2.53;1.88;;;1.70;99.70;;;;;;5432704;26;20416;-69
2024/04/22 04:55:37;;;;;;;3.75;1.83;;;1.80;99.70;;;;;;5437443;26;20066;-69
2024/04/22 04:58:03;;;;;;;4.00;1.80;;;1.90;99.70;;;;;;5431394;26;20003;-70
2024/04/22 05:00:29;;;;;;;2.45;1.48;;;2.00;99.60;;;;;;5433802;26;19999;-69
2024/04/22 05:02:54;;;;;;;1.92;1.25;;;2.10;99.60;;;;;;5433355;26;20013;-69
2024/04/22 05:05:20;;;;;;;3.40;1.73;;;2.30;99.60;;;;;;5434311;26;19999;-69
2024/04/22 05:07:50;;;;;;;2.58;1.80;;;2.40;99.60;;;;;;5436579;26;20010;-69
2024/04/22 05:10:19;;;;;;;4.38;2.05;;;2.50;99.60;;;;;;5430010;26;19996;-69
2024/04/22 05:12:45;;;;;;;3.97;2.00;;;2.60;99.50;;;;;;5437149;26;20085;-69
2024/04/22 05:15:11;;;;;;;22.20;3.05;;;2.60;99.50;;;;;;5434115;26;20044;-69
2024/04/22 05:17:37;;;;;;;4.00;2.05;;;2.60;99.30;;;;;;5435084;26;19999;-69
2024/04/22 05:20:03;;;;;;;4.30;2.00;;;2.70;99.70;;;;;;5436908;26;20003;-68
2024/04/22 05:22:28;;;;;;;6.32;1.95;;;2.80;99.60;;;;;;5431713;26;20003;-69
2024/04/22 05:24:54;;;;;;;3.33;2.15;;;2.80;99.50;;;;;;5434037;26;20587;-69
2024/04/22 05:27:20;;;;;;;6.40;3.42;;;3.00;99.40;;;;;;5429724;26;20509;-68
2024/04/22 05:29:46;;;;;;;9.25;3.80;;;3.10;99.50;;;;;;5435906;26;20465;-69
2024/04/22 05:32:12;;;;;;;6.95;3.22;;;3.20;99.70;;;;;;5427750;26;20008;-69
2024/04/22 05:37:22;;;;;;;2.90;2.55;;;3.40;99.00;;;;;;5436863;26;20013;-69
2024/04/22 05:39:48;;;;;;;3.58;1.48;;;3.60;98.70;;;;;;5434881;26;20002;-69
2024/04/22 05:42:13;;;;;;;3.75;1.55;;;3.70;98.40;;;;;;5432005;26;20509;-69
2024/04/22 05:44:39;;;;;;;1.90;1.60;;;3.90;98.10;;;;;;5427119;26;20917;-69
2024/04/22 05:47:05;;;;;;;2.92;1.83;;;4.10;97.80;;;;;;5433210;26;20003;-70
2024/04/22 05:49:31;;;;;;;4.20;1.80;;;4.30;97.30;;;;;;5437023;26;19995;-69
2024/04/22 05:51:57;;;;;;;4.03;1.45;;;4.60;97.20;;;;;;5428769;26;20035;-70
2024/04/22 05:54:24;;;;;;;2.45;1.33;;;5.00;96.00;;;;;;5432794;26;20005;-69
2024/04/22 05:56:50;;;;;;;3.65;2.10;;;5.30;95.40;;;;;;5426800;26;20929;-70
2024/04/22 05:59:16;;;;;;;4.68;2.90;;;5.60;95.20;;;;;;5433334;26;20010;-70
2024/04/22 06:01:42;;;;;;;3.20;1.88;;;6.00;94.40;;;;;;5431747;26;20012;-70
2024/04/22 06:04:08;;;;;;;1.90;1.30;;;6.40;94.10;;;;;;5435956;26;20014;-70
2024/04/22 06:06:36;;;;;;;3.47;1.35;;;6.80;94.00;;;;;;5427697;26;20011;-69
2024/04/22 06:09:03;;;;;;;3.45;1.70;;;7.20;92.00;;;;;;5431629;26;20002;-69
2024/04/22 06:11:30;;;;;;;4.53;1.80;;;7.60;91.70;;;;;;5424814;26;20481;-69
2024/04/22 06:13:56;;;;;;;4.63;1.50;;;8.00;90.80;;;;;;5432523;26;20003;-69
2024/04/22 06:16:23;;;;;;;5.43;1.55;;;8.30;90.20;;;;;;5433897;26;19999;-70
2024/04/22 06:18:49;;;;;;;5.00;2.00;;;8.50;90.10;;;;;;5434361;26;20011;-69
2024/04/22 06:21:16;;;;;;;5.88;1.52;;;8.90;88.60;;;;;;5436301;26;19990;-68
2024/04/22 06:23:42;;;;;;;2.72;1.92;;;9.40;87.60;;;;;;5430462;26;20002;-69
2024/04/22 06:26:08;;;;;;;7.65;4.30;;;9.90;85.00;;;;;;5426907;26;19991;-69
2024/04/22 06:28:35;;;;;;;3.65;1.80;;;10.10;83.90;;;;;;5433653;26;20009;-69
2024/04/22 06:31:01;;;;;;;2.67;1.27;;;10.00;82.90;;;;;;5437440;26;20073;-69
2024/04/22 06:33:27;;;;;;;2.45;1.60;;;9.80;82.60;;;;;;5433365;26;19999;-69
2024/04/22 06:35:53;;;;;;;4.43;1.77;;;9.80;82.80;;;;;;5429234;26;19991;-69
2024/04/22 06:38:19;;;;;;;3.83;1.52;;;10.10;82.40;;;;;;5433393;26;20010;-69
2024/04/22 06:40:46;;;;;;;2.75;1.30;;;10.50;80.50;;;;;;5431813;26;20326;-69
2024/04/22 06:43:12;;;;;;;4.03;1.50;;;10.90;78.80;;;;;;5429684;26;20320;-69
2024/04/22 06:45:43;;;;;;;1.92;1.30;;;11.30;78.70;;;;;;5435835;26;20327;-69
2024/04/22 06:48:09;;;;;;;1.77;1.05;;;11.60;77.60;;;;;;5432669;26;19996;-69
2024/04/22 06:50:36;;;;;;;3.42;1.67;;;11.60;74.60;;;;;;5431692;26;20018;-69
2024/04/22 06:53:01;;;;;;;4.00;1.63;;;11.40;75.80;;;;;;5429729;26;20018;-69
2024/04/22 06:55:27;;;;;;;3.83;1.98;;;11.20;76.90;;;;;;5435401;26;20779;-69
2024/04/22 06:57:53;;;;;;;5.20;1.70;;;10.90;76.70;;;;;;5428345;26;20026;-69
2024/04/22 07:00:20;;;;;;;2.15;1.60;;;10.90;77.10;;;;;;5431939;26;20002;-69
2024/04/22 07:02:46;;;;;;;3.33;1.90;;;10.90;77.50;;;;;;5434500;26;20104;-68
2024/04/22 07:05:12;;;;;;;5.65;1.90;;;11.10;77.10;;;;;;5436663;26;19995;-69
2024/04/22 07:07:38;;;;;;;11.02;4.70;;;11.40;77.40;;;;;;5433082;26;20009;-68
2024/04/22 07:10:04;;;;;;;7.15;4.15;;;11.40;75.40;;;;;;5430640;26;19999;-69
2024/04/22 07:12:30;;;;;;;5.70;2.50;;;11.20;75.40;;;;;;5436462;26;19999;-68
2024/04/22 07:14:56;;;;;;;3.95;1.75;;;11.00;75.90;;;;;;5431278;26;20118;-73
2024/04/22 07:17:22;;;;;;;4.30;2.10;;;10.80;75.70;;;;;;5428607;26;20636;-74
2024/04/22 07:19:50;;;;;;;3.35;2.08;;;10.60;77.20;;;;;;5433203;26;20463;-73
2024/04/22 07:22:16;;;;;;;7.70;2.13;;;10.30;78.50;;;;;;5422779;26;19999;-73
2024/04/22 07:24:45;;;;;;;4.57;1.98;;;10.10;79.00;;;;;;5434616;26;20002;-73
2024/04/22 07:27:11;;;;;;;3.15;1.60;;;10.20;78.40;;;;;;5426812;26;19995;-72
2024/04/22 07:29:37;;;;;;;2.75;1.60;;;10.20;76.80;;;;;;5434913;26;20847;-73
2024/04/22 07:32:03;;;;;;;3.78;1.70;;;10.20;77.70;;;;;;5421982;26;20007;-73
2024/04/22 07:34:30;;;;;;;2.50;1.67;;;10.40;76.60;;;;;;5432265;26;19995;-73
2024/04/22 07:37:06;;;;;;;4.30;1.48;;;10.20;72.70;;;;;;5420633;26;20048;-73
2024/04/22 07:39:35;;;;;;;2.70;1.67;;;9.90;74.40;;;;;;5432764;26;20006;-73
2024/04/22 07:42:01;;;;;;;7.13;1.70;;;9.80;76.10;;;;;;5426885;26;20090;-73
2024/04/22 07:44:26;;;;;;;4.05;1.75;;;9.90;75.20;;;;;;5433713;26;20396;-73
2024/04/22 07:46:53;;;;;;;3.17;1.55;;;10.00;73.20;;;;;;5430236;26;20017;-74
2024/04/22 07:49:18;;;;;;;3.00;1.55;;;10.00;73.80;;;;;;5433101;26;19998;-73
2024/04/22 07:51:44;;;;;;;2.30;1.23;;;9.90;74.70;;;;;;5436974;26;20541;-73
2024/04/22 07:54:10;;;;;;;4.75;1.50;;;9.90;76.80;;;;;;5430384;26;20088;-74
2024/04/22 07:56:36;;;;;;;3.15;1.35;;;9.90;75.60;;;;;;5435511;26;20017;-73
2024/04/22 07:59:04;;;;;;;2.78;1.50;;;10.00;75.80;;;;;;5436033;26;20600;-73
2024/04/22 08:01:30;;;;;;;2.30;1.50;;;9.90;74.40;;;;;;5433719;26;20971;-73
2024/04/22 08:03:56;;;;;;;1.83;1.27;;;9.90;72.80;;;;;;5433493;26;20531;-73
2024/04/22 08:06:29;;;;;;;2.10;1.15;;;9.90;75.10;;;;;;5433662;26;20021;-74
2024/04/22 08:08:55;;;;;;;1.00;0.90;;;9.90;74.00;;;;;;5434813;26;20014;-72
2024/04/22 08:11:21;;;;;;;3.03;1.60;;;9.90;73.20;;;;;;5433583;26;20008;-72
2024/04/22 08:13:47;;;;;;;2.60;1.40;;;10.00;75.30;;;;;;5436181;26;20010;-74
2024/04/22 08:16:12;;;;;;;2.35;0.80;;;10.10;74.90;;;;;;5435475;26;19999;-74
2024/04/22 08:18:38;;;;;;;1.63;1.27;;;10.20;73.60;;;;;;5430182;26;20003;-73
2024/04/22 08:21:07;;;;;;;3.05;1.67;;;10.20;74.60;;;;;;5433888;26;19998;-74
2024/04/22 08:23:33;;;;;;;3.95;1.40;;;10.20;72.50;;;;;;5427923;26;19999;-74
2024/04/22 08:25:59;;;;;;;1.60;1.20;;;10.30;74.70;;;;;;5430115;26;19999;-74
2024/04/22 08:28:25;;;;;;;2.85;1.45;;;10.50;73.10;;;;;;5428052;26;20003;-74
2024/04/22 08:31:02;;;;;;;2.03;1.55;;;10.60;74.80;;;;;;5426909;26;20020;-73
2024/04/22 08:33:28;;;;;;;1.45;1.13;;;10.50;74.80;;;;;;5434064;26;19994;-73
2024/04/22 08:35:53;;;;;;;2.35;1.20;;;10.40;73.10;;;;;;5432855;26;20006;-76
2024/04/22 08:38:19;;;;;;;2.50;1.15;;;10.30;73.30;;;;;;5432738;26;19998;-75
2024/04/22 08:40:45;;;;;;;1.85;1.13;;;10.20;73.50;;;;;;5431157;26;20002;-72
2024/04/22 08:43:14;;;;;;;1.52;1.30;;;10.10;74.30;;;;;;5432110;26;19995;-72
2024/04/22 08:45:47;;;;;;;1.17;1.05;;;10.10;74.70;;;;;;5432014;26;20006;-73
2024/04/22 08:48:13;;;;;;;1.10;1.00;;;9.90;73.70;;;;;;5433615;26;20002;-73
2024/04/22 08:50:40;;;;;;;2.08;1.27;;;9.90;76.80;;;;;;5428360;26;20003;-72
2024/04/22 08:53:11;;;;;;;5.55;1.60;;;9.90;78.30;;;;;;5426549;26;20003;-72
2024/04/22 08:55:38;;;;;;;2.05;1.20;;;10.10;79.10;;;;;;5432345;26;20844;-72
2024/04/22 08:58:04;;;;;;;2.95;1.40;;;10.30;73.90;;;;;;5433640;26;20014;-72
2024/04/22 09:00:30;;;;;;;5.45;1.23;;;10.60;77.80;;;;;;5436888;26;20029;-72
2024/04/22 09:02:56;;;;;;;1.52;0.95;;;10.80;76.70;;;;;;5436863;26;19995;-71
2024/04/22 09:05:22;;;;;;;1.65;1.00;;;11.00;74.80;;;;;;5432267;26;20011;-72
2024/04/22 09:07:58;;;;;;;0.95;0.90;;;11.20;71.80;;;;;;5437852;26;20437;-73
2024/04/22 09:10:24;;;;;;;1.55;0.80;;;11.10;70.80;;;;;;5435966;26;20011;-72
2024/04/22 09:13:00;;;;;;;2.90;1.10;;;11.30;72.60;;;;;;5431531;26;19999;-73
2024/04/22 09:15:29;;;;;;;;;;;11.60;70.70;;;;;;5434392;26;20014;-73
2024/04/22 09:17:55;;;;;;;0.70;0.70;;;12.10;73.50;;;;;;5427072;26;19940;-73
2024/04/22 09:20:22;;;;;;;1.58;1.00;;;12.40;66.00;;;;;;5432252;26;19994;-72
2024/04/22 09:22:48;;;;;;;2.60;0.93;;;12.40;67.10;;;;;;5427653;26;19995;-73
2024/04/22 09:25:14;;;;;;;1.42;0.70;;;12.30;67.60;;;;;;5430449;26;20006;-73
2024/04/22 09:27:47;;;;;;;3.50;0.90;;;12.10;64.80;;;;;;5433972;26;19991;-72
2024/04/22 09:30:14;;;;;;;1.60;1.05;;;11.90;69.60;;;;;;5430794;26;19998;-73
2024/04/22 09:32:51;;;;;;;1.92;1.20;;;11.60;69.70;;;;;;5435468;26;20022;-74
2024/04/22 09:35:19;;;;;;;3.83;2.13;;;11.30;70.40;;;;;;5426908;26;20453;-74
2024/04/22 09:37:46;;;;;;;1.67;1.50;;;11.00;72.50;;;;;;5438159;26;20553;-74
2024/04/22 09:40:14;;;;;;;2.47;1.63;;;10.90;73.90;;;;;;5425253;26;19995;-76
2024/04/22 09:42:47;;;;;;;2.03;1.52;;;10.70;71.60;;;;;;5433938;26;20970;-70
2024/04/22 09:45:14;;;;;;;2.15;1.08;;;10.50;71.60;;;;;;5430897;26;20072;-75
2024/04/22 09:47:41;;;;;;;1.45;1.13;;;10.30;72.90;;;;;;5438947;26;20011;-76
2024/04/22 09:50:07;;;;;;;1.02;0.93;;;10.20;75.00;;;;;;5438308;26;20007;-74
2024/04/22 09:52:38;;;;;;;1.17;0.98;;;10.00;74.50;;;;;;5433879;26;20034;-76
2024/04/22 09:55:05;;;;;;;1.80;1.02;;;9.90;75.20;;;;;;5439742;26;20355;-76
2024/04/22 09:57:40;;;;;;;3.25;1.20;;;9.70;74.80;;;;;;5430005;26;20002;-75
2024/04/22 10:00:08;;;;;;;1.45;1.33;;;9.50;77.00;;;;;;5436539;26;20299;-74
2024/04/22 10:02:34;;;;;;;3.78;1.40;;;9.40;80.60;;;;;;5432747;26;20048;-75
2024/04/22 10:05:00;;;;;;;0.90;0.75;;;9.50;81.30;;;;;;5437228;26;20003;-75
2024/04/22 10:07:26;;;;;;;1.92;1.20;;;9.60;83.30;;;;;;5432882;26;20445;-75
2024/04/22 10:09:55;;;;;;;1.50;1.20;;;9.90;83.50;;;;;;5440297;26;20350;-75
2024/04/22 10:12:29;;;;;;;1.45;1.10;;;10.20;80.80;;;;;;5432298;26;20003;-75
2024/04/22 10:15:09;;;;;;;4.40;2.60;;;10.30;78.60;;;;;;5437023;26;20003;-75
2024/04/22 10:17:35;;;;;;;3.47;1.25;;;10.50;77.70;;;;;;5434677;26;20006;-75
2024/04/22 10:20:01;;;;;;;2.55;1.40;;;10.50;76.00;;;;;;5438015;26;20678;-74
2024/04/22 10:22:32;;;;;;;5.13;1.42;;;10.40;77.30;;;;;;5432234;26;19995;-75
2024/04/22 10:25:05;;;;;;;2.47;1.60;;;10.10;80.00;;;;;;5434375;26;20010;-74
2024/04/22 10:27:32;;;;;;;2.78;1.60;;;9.80;81.10;;;;;;5437254;26;20042;-75
2024/04/22 10:30:00;;;;;;;2.08;1.33;;;9.60;84.20;;;;;;5439330;26;20017;-77
2024/04/22 10:32:27;;;;;;;2.30;1.40;;;9.30;85.50;;;;;;5433842;26;20331;-74
2024/04/22 10:34:53;;;;;;;2.45;1.60;;;9.00;86.30;;;;;;5434421;26;19995;-75
2024/04/22 10:37:20;;;;;;;1.98;1.20;;;8.80;89.90;;;;;;5435705;26;20343;-75
2024/04/22 10:39:47;;;;;;;3.67;1.80;;;8.60;90.90;;;;;;5433836;26;20430;-75
2024/04/22 10:42:14;;;;;;;4.30;1.60;;;8.50;91.60;;;;;;5434473;26;19999;-76
2024/04/22 10:44:41;;;;;;;1.67;1.58;;;8.40;92.10;;;;;;5433130;26;20613;-76
2024/04/22 10:47:08;;;;;;;2.13;1.60;;;8.30;92.50;;;;;;5437310;26;20068;-76
2024/04/22 10:49:34;;;;;;;2.63;2.10;;;8.40;94.00;;;;;;5434908;26;19995;-70
2024/04/22 10:52:03;;;;;;;2.55;1.85;;;8.40;94.90;;;;;;5429557;26;20002;-70
2024/04/22 10:54:29;;;;;;;4.13;1.98;;;8.70;95.50;;;;;;5432425;26;20010;-77
2024/04/22 10:56:55;;;;;;;3.45;1.90;;;8.90;95.50;;;;;;5426379;26;20018;-73
2024/04/22 10:59:21;;;;;;;2.45;1.80;;;9.20;94.60;;;;;;5429531;26;19995;-71
2024/04/22 11:01:48;;;;;;;2.47;1.60;;;9.30;94.00;;;;;;5435293;26;20587;-71
2024/04/22 11:04:14;;;;;;;4.78;1.75;;;9.50;93.40;;;;;;5433902;26;20034;-71
2024/04/22 11:06:40;;;;;;;2.35;1.70;;;9.60;93.50;;;;;;5436211;26;20003;-70
2024/04/22 11:09:07;;;;;;;2.25;1.73;;;9.70;90.40;;;;;;5436913;26;20018;-71
2024/04/22 11:11:35;;;;;;;1.83;1.23;;;9.80;90.80;;;;;;5437825;26;20002;-71
2024/04/22 11:14:03;;;;;;;3.38;2.17;;;9.90;91.00;;;;;;5436239;26;20007;-71
2024/04/22 11:16:28;;;;;;;6.28;3.30;;;10.10;91.20;;;;;;5439284;26;20013;-71
2024/04/22 11:19:05;;;;;;;3.42;2.70;;;10.20;90.60;;;;;;5430073;26;20007;-71
2024/04/22 11:21:32;;;;;;;2.25;1.80;;;10.40;89.40;;;;;;5431011;26;20718;-71
2024/04/22 11:23:58;;;;;;;3.40;2.42;;;10.50;87.60;;;;;;5437091;26;19998;-71
2024/04/22 11:26:25;;;;;;;2.80;1.70;;;10.40;86.90;;;;;;5437816;26;20328;-71
2024/04/22 11:28:57;;;;;;;1.65;1.38;;;10.40;87.60;;;;;;5434530;26;20007;-71
2024/04/22 11:31:23;;;;;;;5.38;2.10;;;10.40;88.20;;;;;;5434337;26;20003;-70
2024/04/22 11:33:48;;;;;;;6.05;2.78;;;10.50;90.60;;;;;;5428461;26;20387;-71
2024/04/22 11:36:15;;;;;;;5.70;3.28;;;10.50;86.10;;;;;;5437917;26;20910;-70
2024/04/22 11:38:41;;;;;;;2.53;1.60;;;10.50;88.00;;;;;;5428426;26;20031;-71
2024/04/22 11:41:10;;;;;;;3.40;1.80;;;10.50;86.50;;;;;;5434491;26;20332;-71
2024/04/22 11:43:36;;;;;;;2.10;1.50;;;10.60;89.00;;;;;;5434498;26;20006;-71
2024/04/22 11:46:02;;;;;;;1.88;1.30;;;10.70;87.50;;;;;;5434918;26;20014;-72
2024/04/22 11:48:28;;;;;;;5.70;1.90;;;10.60;82.80;;;;;;5433280;26;20008;-71
2024/04/22 11:50:54;;;;;;;4.47;1.98;;;10.70;84.40;;;;;;5436522;26;20007;-71
2024/04/22 11:53:20;;;;;;;2.22;1.48;;;10.70;87.00;;;;;;5431454;26;20002;-71
2024/04/22 11:55:46;;;;;;;3.20;1.60;;;10.80;84.90;;;;;;5436838;26;20013;-71
2024/04/22 11:58:12;;;;;;;4.90;2.22;;;10.80;83.90;;;;;;5433760;26;20355;-71
2024/04/22 12:00:39;;;;;;;2.88;1.55;;;10.80;84.30;;;;;;5434780;26;20010;-71
2024/04/22 12:03:06;;;;;;;2.50;1.55;;;10.70;84.10;;;;;;5429088;26;20014;-71
2024/04/22 12:05:32;;;;;;;4.55;2.42;;;10.80;84.60;;;;;;5438696;26;20035;-71
2024/04/22 12:07:58;;;;;;;1.80;1.35;;;10.90;85.40;;;;;;5437743;26;20019;-71
2024/04/22 12:10:23;;;;;;;1.35;1.00;;;11.00;81.60;;;;;;5435795;26;20006;-76
2024/04/22 12:12:49;;;;;;;2.35;1.70;;;11.00;76.20;;;;;;5438679;26;20092;-77
2024/04/22 12:15:15;;;;;;;3.58;1.58;;;11.00;80.60;;;;;;5437409;26;20003;-77
2024/04/22 12:17:41;;;;;;;2.05;1.42;;;11.00;81.00;;;;;;5431480;26;20992;-71
2024/04/22 12:20:07;;;;;;;1.58;1.23;;;11.00;79.90;;;;;;5432551;26;19998;-73
2024/04/22 12:22:33;;;;;;;2.42;1.20;;;11.20;76.10;;;;;;5427419;26;19999;-75
2024/04/22 12:24:58;;;;;;;1.30;1.20;;;11.30;75.40;;;;;;5432338;26;20014;-73
2024/04/22 12:27:26;;;;;;;2.17;1.40;;;11.40;77.00;;;;;;5437081;26;20057;-72
2024/04/22 12:29:52;;;;;;;1.05;0.93;;;11.50;78.60;;;;;;5432517;26;20482;-73
2024/04/22 12:32:18;;;;;;;2.05;1.27;;;11.50;75.40;;;;;;5431876;26;19999;-70
2024/04/22 12:34:44;;;;;;;2.95;1.35;;;11.40;76.40;;;;;;5430195;26;20018;-72
2024/04/22 12:37:10;;;;;;;2.38;1.00;;;11.40;75.50;;;;;;5434906;26;20003;-73
2024/04/22 12:39:36;;;;;;;3.30;1.38;;;11.40;75.30;;;;;;5433813;26;20003;-73
2024/04/22 12:42:01;;;;;;;4.88;2.35;;;11.50;76.50;;;;;;5431386;26;20003;-74
2024/04/22 12:44:27;;;;;;;2.97;1.42;;;11.60;76.70;;;;;;5427817;26;20028;-73
2024/04/22 12:52:22;;;;;;;1.60;0.98;;;11.80;73.10;;;;;;5429641;26;20553;-73
2024/04/22 12:54:48;;;;;;;1.55;1.13;;;11.70;73.50;;;;;;5430613;26;20003;-74
2024/04/22 12:57:13;;;;;;;1.42;1.23;;;11.60;70.50;;;;;;5435929;26;19999;-74
2024/04/22 12:59:39;;;;;;;2.45;1.33;;;11.70;75.40;;;;;;5431855;26;20813;-74
2024/04/22 13:02:09;;;;;;;2.30;1.50;;;11.70;75.00;;;;;;5435572;26;20009;-74
2024/04/22 13:04:35;;;;;;;2.13;1.05;;;11.80;73.50;;;;;;5427697;26;20618;-74